Time;durP1;ratioP1;P1;durP2;ratioP2;P2;SDS_P1;SDS_P2;PMS_P1;PMS_P2;Temp;Humidity;BMP_temperature;BMP_pressure;BME280_temperature;BME280_humidity;BME280_pressure;Samples;Min_cycle;Max_cycle;Signal;HPM_P1;HPM_P2
2021/09/04 00:03:55;;;;;;;27.10;19.20;;;15.40;99.90;;;;;;4957829;28;20452;-85
2021/09/04 00:09:40;;;;;;;27.93;18.50;;;15.10;99.90;;;;;;4945113;29;20455;-85
2021/09/04 00:12:22;;;;;;;27.23;19.40;;;15.70;99.90;;;;;;4948063;29;20566;-85
2021/09/04 00:15:09;;;;;;;28.23;19.80;;;15.10;99.90;;;;;;4947683;29;20444;-85
2021/09/04 00:24:55;;;;;;;27.80;18.67;;;15.00;99.90;;;;;;4898714;29;20529;-85
2021/09/04 00:35:10;;;;;;;27.80;20.07;;;15.00;99.90;;;;;;4868623;29;20443;-85
2021/09/04 00:54:22;;;;;;;28.00;19.67;;;17.50;99.90;;;;;;4952319;23;20491;-83
2021/09/04 00:56:49;;;;;;;32.27;21.07;;;14.90;99.90;;;;;;4960876;28;20478;-83
2021/09/04 00:59:17;;;;;;;29.60;19.40;;;14.90;99.90;;;;;;4962254;28;20470;-83
2021/09/04 01:01:43;;;;;;;32.50;21.80;;;15.00;99.90;;;;;;4962798;28;20533;-84
2021/09/04 01:04:11;;;;;;;26.40;19.37;;;15.00;99.90;;;;;;4962185;28;20541;-82
2021/09/04 01:06:39;;;;;;;32.60;20.83;;;15.00;99.90;;;;;;4961982;28;20455;-84
2021/09/04 01:09:06;;;;;;;24.13;18.30;;;14.90;99.90;;;;;;4961105;28;20487;-83
2021/09/04 01:11:33;;;;;;;32.83;21.57;;;15.00;99.90;;;;;;4962235;28;20451;-83
2021/09/04 01:14:00;;;;;;;28.03;18.40;;;15.00;99.90;;;;;;4962453;28;20498;-83
2021/09/04 01:16:34;;;;;;;23.80;17.93;;;15.00;99.90;;;;;;4962423;28;20488;-83
2021/09/04 01:19:01;;;;;;;27.00;18.70;;;14.90;99.90;;;;;;4963469;28;20438;-83
2021/09/04 01:21:27;;;;;;;29.33;19.20;;;14.90;99.90;;;;;;4972746;28;20487;-82
2021/09/04 01:23:55;;;;;;;26.93;17.77;;;14.90;99.90;;;;;;4974028;28;20463;-81
2021/09/04 01:26:24;;;;;;;28.03;18.40;;;14.80;99.90;;;;;;4972425;28;20871;-83
2021/09/04 01:28:50;;;;;;;33.07;19.87;;;14.80;99.90;;;;;;4965129;28;20453;-82
2021/09/04 01:31:17;;;;;;;27.13;19.00;;;14.90;99.90;;;;;;4974085;28;20451;-81
2021/09/04 01:33:47;;;;;;;28.67;17.87;;;14.80;99.90;;;;;;4973835;28;20454;-82
2021/09/04 01:36:27;;;;;;;25.93;18.73;;;14.80;99.90;;;;;;4973836;28;20438;-82
2021/09/04 01:38:54;;;;;;;25.67;18.50;;;14.80;99.90;;;;;;4968243;28;20431;-83
2021/09/04 01:41:20;;;;;;;26.43;19.37;;;14.80;99.90;;;;;;4962840;28;20494;-83
2021/09/04 01:43:48;;;;;;;25.10;16.90;;;14.70;99.90;;;;;;4963378;28;20498;-83
2021/09/04 01:46:15;;;;;;;27.63;17.20;;;14.70;99.90;;;;;;4971020;28;20455;-82
2021/09/04 01:48:41;;;;;;;24.60;17.40;;;14.70;99.90;;;;;;4970993;28;20480;-82
2021/09/04 01:51:08;;;;;;;28.10;18.50;;;14.70;99.90;;;;;;4970585;28;20454;-82
2021/09/04 01:53:35;;;;;;;20.37;16.60;;;14.60;99.90;;;;;;4965505;28;20447;-82
2021/09/04 01:56:02;;;;;;;29.47;17.37;;;14.60;99.90;;;;;;4970440;28;20439;-83
2021/09/04 01:58:28;;;;;;;27.17;19.90;;;14.60;99.90;;;;;;4968012;28;20454;-83
2021/09/04 02:00:56;;;;;;;25.40;18.23;;;14.60;99.90;;;;;;4964999;28;20537;-83
2021/09/04 02:03:23;;;;;;;27.50;18.23;;;14.60;99.90;;;;;;4961089;28;20858;-83
2021/09/04 02:05:49;;;;;;;27.93;18.90;;;14.60;99.90;;;;;;4960111;28;20479;-83
2021/09/04 02:08:16;;;;;;;30.97;16.70;;;14.50;99.90;;;;;;4964667;28;20454;-83
2021/09/04 02:10:42;;;;;;;27.70;17.30;;;14.50;99.90;;;;;;4977261;28;20463;-83
2021/09/04 02:13:09;;;;;;;28.40;18.13;;;14.50;99.90;;;;;;4966356;28;20458;-82
2021/09/04 02:15:36;;;;;;;29.00;18.80;;;14.50;99.90;;;;;;4971805;28;20477;-81
2021/09/04 02:18:04;;;;;;;24.60;18.00;;;14.50;99.90;;;;;;4974393;28;20450;-81
2021/09/04 02:20:31;;;;;;;32.00;19.00;;;14.30;99.90;;;;;;4975660;28;20489;-81
2021/09/04 02:22:57;;;;;;;32.90;18.23;;;14.20;99.90;;;;;;4976953;28;20443;-81
2021/09/04 02:25:24;;;;;;;27.43;17.90;;;14.20;99.90;;;;;;4976600;28;20474;-81
2021/09/04 02:27:51;;;;;;;26.53;18.20;;;14.10;99.90;;;;;;4974876;28;20447;-81
2021/09/04 02:30:17;;;;;;;26.20;18.10;;;14.10;99.90;;;;;;4975573;28;20447;-81
2021/09/04 02:32:44;;;;;;;25.90;17.83;;;;;;;;;;4969054;28;20454;-83
2021/09/04 02:35:12;;;;;;;26.93;17.90;;;14.20;99.90;;;;;;4960798;28;20481;-84
2021/09/04 02:37:39;;;;;;;25.47;17.97;;;14.20;99.90;;;;;;4962475;28;20454;-83
2021/09/04 02:40:08;;;;;;;29.37;19.60;;;14.20;99.90;;;;;;4970050;28;20446;-83
2021/09/04 02:42:35;;;;;;;28.27;18.27;;;14.20;99.90;;;;;;4959088;28;20927;-83
2021/09/04 02:45:01;;;;;;;32.40;18.90;;;14.30;99.90;;;;;;4958997;28;20502;-83
2021/09/04 02:47:28;;;;;;;27.50;17.87;;;14.30;99.90;;;;;;4959269;28;20455;-83
2021/09/04 02:49:54;;;;;;;27.07;17.03;;;14.20;99.90;;;;;;4959514;28;20493;-83
2021/09/04 02:52:22;;;;;;;27.10;18.20;;;14.20;99.90;;;;;;4959407;28;20872;-83
2021/09/04 02:54:49;;;;;;;22.83;16.33;;;14.20;99.90;;;;;;4958924;28;20482;-83
2021/09/04 02:57:15;;;;;;;21.97;16.43;;;14.20;99.90;;;;;;4961338;28;20458;-83
2021/09/04 02:59:42;;;;;;;27.63;17.03;;;14.10;99.90;;;;;;4960827;28;20447;-83
2021/09/04 03:02:09;;;;;;;28.00;17.33;;;14.10;99.90;;;;;;4963376;28;20509;-83
2021/09/04 03:04:35;;;;;;;26.80;17.80;;;14.00;99.90;;;;;;4963620;28;20470;-83
2021/09/04 03:07:02;;;;;;;25.47;18.37;;;14.00;99.90;;;;;;4963611;28;20454;-83
2021/09/04 03:09:30;;;;;;;28.03;20.03;;;14.00;99.90;;;;;;4963943;28;20455;-83
2021/09/04 03:11:56;;;;;;;28.50;19.37;;;14.00;99.90;;;;;;4968041;28;20792;-83
2021/09/04 03:14:23;;;;;;;25.20;17.50;;;14.00;99.90;;;;;;4967500;28;20481;-83
2021/09/04 03:16:50;;;;;;;28.63;17.30;;;14.00;99.90;;;;;;4965255;28;20458;-82
2021/09/04 03:19:17;;;;;;;25.23;18.13;;;14.00;99.90;;;;;;4965104;28;20485;-80
2021/09/04 03:21:43;;;;;;;24.70;16.53;;;14.00;99.90;;;;;;4966352;28;20544;-82
2021/09/04 03:24:10;;;;;;;27.47;18.87;;;13.90;99.90;;;;;;4964062;28;20824;-81
2021/09/04 03:26:38;;;;;;;26.63;17.33;;;13.80;99.90;;;;;;4964478;28;20450;-84
2021/09/04 03:29:04;;;;;;;25.10;17.57;;;13.90;99.90;;;;;;4963142;28;21032;-82
2021/09/04 03:31:31;;;;;;;31.97;19.27;;;13.80;99.90;;;;;;4962479;28;20450;-83
2021/09/04 03:33:58;;;;;;;34.63;19.63;;;13.80;99.90;;;;;;4961844;28;20477;-83
2021/09/04 03:36:24;;;;;;;26.93;18.83;;;13.80;99.90;;;;;;4962524;28;20450;-83
2021/09/04 03:38:51;;;;;;;28.33;17.57;;;13.80;99.90;;;;;;4962573;28;20447;-82
2021/09/04 03:41:17;;;;;;;31.43;18.60;;;13.80;99.90;;;;;;4973364;28;20482;-81
2021/09/04 03:43:45;;;;;;;29.53;18.70;;;13.60;99.90;;;;;;4977491;28;20482;-81
2021/09/04 03:46:12;;;;;;;27.80;18.60;;;13.70;99.90;;;;;;4977657;28;20451;-82
2021/09/04 03:48:38;;;;;;;27.47;18.33;;;13.70;99.90;;;;;;4977579;28;20458;-81
2021/09/04 03:51:05;;;;;;;26.67;19.37;;;13.70;99.90;;;;;;4974559;28;20446;-82
2021/09/04 03:53:31;;;;;;;30.97;19.50;;;13.60;99.90;;;;;;4965749;28;20446;-83
2021/09/04 03:55:58;;;;;;;25.33;17.50;;;13.60;99.90;;;;;;4961793;28;20505;-82
2021/09/04 03:58:24;;;;;;;27.87;19.60;;;13.60;99.90;;;;;;4962993;28;20486;-81
2021/09/04 04:00:52;;;;;;;28.87;19.83;;;13.60;99.90;;;;;;4963067;28;20451;-82
2021/09/04 04:03:19;;;;;;;31.80;20.60;;;13.60;99.90;;;;;;4961983;28;20470;-82
2021/09/04 04:05:45;;;;;;;29.70;18.53;;;13.50;99.90;;;;;;4961967;28;20466;-81
2021/09/04 04:08:12;;;;;;;28.63;18.60;;;13.40;99.90;;;;;;4962311;28;20446;-83
2021/09/04 04:10:39;;;;;;;40.03;21.47;;;13.30;99.90;;;;;;4961825;28;20454;-82
2021/09/04 04:13:05;;;;;;;26.53;20.07;;;13.30;99.90;;;;;;4963406;28;20447;-80
2021/09/04 04:15:32;;;;;;;33.73;19.80;;;13.30;99.90;;;;;;4981434;28;20470;-82
2021/09/04 04:18:00;;;;;;;31.27;19.60;;;13.20;99.90;;;;;;4964324;28;20451;-82
2021/09/04 04:20:26;;;;;;;33.57;20.10;;;13.20;99.90;;;;;;4963530;28;20439;-82
2021/09/04 04:22:53;;;;;;;37.13;22.50;;;13.30;99.90;;;;;;4966154;28;20487;-82
2021/09/04 04:25:20;;;;;;;38.37;21.40;;;13.20;99.90;;;;;;4967222;28;20478;-82
2021/09/04 04:27:46;;;;;;;37.47;21.83;;;13.10;99.90;;;;;;4977527;28;20445;-82
2021/09/04 04:30:14;;;;;;;43.83;22.90;;;13.10;99.90;;;;;;4967524;28;20455;-82
2021/09/04 04:32:40;;;;;;;42.87;24.03;;;13.10;99.90;;;;;;4971554;28;20556;-82
2021/09/04 04:35:09;;;;;;;39.10;23.03;;;13.10;99.90;;;;;;4969692;28;20470;-83
2021/09/04 04:37:36;;;;;;;37.07;24.10;;;13.20;99.90;;;;;;4963229;28;20451;-83
2021/09/04 04:40:03;;;;;;;37.00;23.70;;;13.30;99.90;;;;;;4961255;28;20490;-83
2021/09/04 04:42:30;;;;;;;37.87;23.70;;;13.30;99.90;;;;;;4960604;28;20521;-83
2021/09/04 04:44:56;;;;;;;38.40;24.17;;;13.40;99.90;;;;;;4960993;28;20465;-83
2021/09/04 04:47:23;;;;;;;50.07;24.00;;;13.40;99.90;;;;;;4964231;28;20470;-83
2021/09/04 04:49:49;;;;;;;39.97;25.70;;;13.40;99.90;;;;;;4968731;28;21012;-83
2021/09/04 04:52:17;;;;;;;44.27;27.10;;;13.40;99.90;;;;;;4969581;28;20447;-83
2021/09/04 04:54:44;;;;;;;45.77;25.37;;;13.40;99.90;;;;;;4969864;28;20485;-83
2021/09/04 04:57:10;;;;;;;46.00;26.60;;;13.40;99.90;;;;;;4970328;28;20450;-83
2021/09/04 04:59:37;;;;;;;41.87;24.40;;;13.40;99.90;;;;;;4969612;28;20454;-80
2021/09/04 05:02:04;;;;;;;38.47;22.40;;;13.40;99.90;;;;;;4969837;28;20486;-83
2021/09/04 05:04:30;;;;;;;43.13;24.87;;;13.40;99.90;;;;;;4964650;28;20529;-84
2021/09/04 05:06:57;;;;;;;43.33;25.20;;;13.40;99.90;;;;;;4961151;28;20459;-83
2021/09/04 05:09:25;;;;;;;39.50;23.30;;;13.40;99.90;;;;;;4961200;28;20493;-84
2021/09/04 05:11:51;;;;;;;38.10;23.83;;;13.40;99.90;;;;;;4960853;28;20442;-83
2021/09/04 05:14:18;;;;;;;36.40;20.80;;;13.50;99.90;;;;;;4960719;28;20467;-84
2021/09/04 05:16:44;;;;;;;38.90;23.03;;;13.50;99.90;;;;;;4961125;28;20482;-82
2021/09/04 05:19:11;;;;;;;41.65;23.58;;;13.50;99.90;;;;;;4968169;28;20443;-81
2021/09/04 05:21:38;;;;;;;39.20;23.63;;;13.40;99.90;;;;;;4975048;28;20227;-82
2021/09/04 05:24:05;;;;;;;36.90;22.20;;;13.40;99.90;;;;;;4967611;28;20495;-82
2021/09/04 05:26:33;;;;;;;38.73;22.80;;;13.40;99.90;;;;;;4968985;28;20451;-81
2021/09/04 05:29:00;;;;;;;31.90;19.57;;;13.30;99.90;;;;;;4965084;28;20826;-84
2021/09/04 05:31:26;;;;;;;33.37;22.40;;;13.40;99.90;;;;;;4961946;28;20447;-82
2021/09/04 05:33:53;;;;;;;33.27;21.77;;;13.50;99.90;;;;;;4962619;28;20475;-82
2021/09/04 05:36:20;;;;;;;31.27;20.07;;;13.40;99.90;;;;;;4959776;28;20463;-82
2021/09/04 05:38:47;;;;;;;33.43;19.87;;;13.40;99.90;;;;;;4960925;28;20458;-83
2021/09/04 05:41:13;;;;;;;28.27;18.17;;;13.50;99.90;;;;;;4960111;28;20535;-83
2021/09/04 05:43:41;;;;;;;33.33;20.03;;;13.50;99.90;;;;;;4959929;28;20505;-83
2021/09/04 05:46:08;;;;;;;35.43;21.27;;;13.50;99.90;;;;;;4959610;28;20463;-82
2021/09/04 05:48:34;;;;;;;33.57;20.77;;;13.50;99.90;;;;;;4961903;28;20454;-82
2021/09/04 05:51:01;;;;;;;30.70;19.10;;;13.50;99.90;;;;;;4972544;28;20478;-81
2021/09/04 05:53:27;;;;;;;29.50;19.70;;;13.40;99.90;;;;;;4974761;28;20521;-81
2021/09/04 05:55:54;;;;;;;29.30;19.10;;;13.40;99.90;;;;;;4973662;28;20575;-82
2021/09/04 05:58:23;;;;;;;29.17;18.67;;;13.30;99.90;;;;;;4970266;28;20458;-82
2021/09/04 06:00:51;;;;;;;30.67;20.17;;;13.30;99.90;;;;;;4969819;28;20443;-83
2021/09/04 06:03:17;;;;;;;27.63;17.10;;;13.40;99.90;;;;;;4969861;28;20494;-82
2021/09/04 06:05:44;;;;;;;28.97;19.07;;;13.40;99.90;;;;;;4969230;28;20815;-83
2021/09/04 06:08:11;;;;;;;26.57;17.27;;;13.40;99.90;;;;;;4961716;28;20950;-83
2021/09/04 06:10:37;;;;;;;27.83;18.70;;;13.40;99.90;;;;;;4959084;28;20443;-83
2021/09/04 06:13:04;;;;;;;26.50;17.73;;;13.50;99.90;;;;;;4960288;28;20486;-83
2021/09/04 06:15:31;;;;;;;23.53;15.60;;;13.60;99.90;;;;;;4959585;28;20466;-84
2021/09/04 06:17:59;;;;;;;26.20;16.40;;;13.70;99.90;;;;;;4960748;28;20822;-83
2021/09/04 06:20:25;;;;;;;31.77;17.97;;;13.80;99.90;;;;;;4980077;28;20438;-82
2021/09/04 06:22:52;;;;;;;25.33;16.67;;;13.70;99.90;;;;;;4962827;28;21000;-82
2021/09/04 06:25:18;;;;;;;27.60;14.83;;;13.70;99.90;;;;;;4961046;28;20506;-83
2021/09/04 06:27:47;;;;;;;25.23;15.33;;;13.70;99.90;;;;;;4960922;28;20472;-83
2021/09/04 06:30:13;;;;;;;27.50;16.20;;;13.80;99.90;;;;;;4976329;28;20443;-81
2021/09/04 06:32:40;;;;;;;21.77;15.10;;;13.80;99.90;;;;;;4973162;28;20447;-82
2021/09/04 06:35:09;;;;;;;24.03;15.70;;;13.70;99.90;;;;;;4974133;28;20498;-82
2021/09/04 06:37:36;;;;;;;23.67;15.60;;;13.70;99.90;;;;;;4979246;28;20446;-82
2021/09/04 06:40:03;;;;;;;23.43;14.77;;;13.70;99.90;;;;;;4979609;28;20439;-82
2021/09/04 06:42:30;;;;;;;25.40;15.50;;;13.70;99.90;;;;;;4979545;28;20466;-81
2021/09/04 06:44:56;;;;;;;23.43;15.20;;;13.70;99.90;;;;;;4976710;28;20470;-82
2021/09/04 06:47:23;;;;;;;23.63;14.00;;;13.70;99.90;;;;;;4976111;28;20446;-83
2021/09/04 06:49:50;;;;;;;22.90;15.27;;;13.70;99.90;;;;;;4976242;28;20425;-82
2021/09/04 06:52:18;;;;;;;23.03;15.07;;;13.80;99.90;;;;;;4974610;28;20443;-83
2021/09/04 06:58:00;;;;;;;21.10;14.53;;;14.80;99.90;;;;;;4967420;28;20489;-85
2021/09/04 07:04:24;;;;;;;24.40;14.50;;;13.80;99.90;;;;;;4937576;28;20553;-83
2021/09/04 07:07:23;;;;;;;23.97;14.03;;;15.40;99.90;;;;;;4918651;29;20479;-84
2021/09/04 07:10:33;;;;;;;24.60;14.80;;;13.90;99.90;;;;;;4958956;29;20440;-84
2021/09/04 07:16:41;;;;;;;23.70;15.70;;;14.00;99.90;;;;;;4958430;29;20479;-85
2021/09/04 07:19:13;;;;;;;23.70;16.20;;;14.00;99.90;;;;;;4890557;29;20603;-84
2021/09/04 07:24:39;;;;;;;29.67;16.83;;;;;;;;;;4958906;29;20842;-84
2021/09/04 07:49:50;;;;;;;25.20;16.57;;;14.30;99.90;;;;;;4958455;28;20453;-82
2021/09/04 07:55:22;;;;;;;24.70;15.47;;;14.50;99.90;;;;;;4961174;28;20483;-84
2021/09/04 07:58:20;;;;;;;24.73;15.10;;;14.60;99.90;;;;;;4962521;28;20448;-84
2021/09/04 08:01:34;;;;;;;22.80;14.93;;;14.60;99.90;;;;;;4961605;29;20468;-85
2021/09/04 08:14:28;;;;;;;26.07;18.00;;;14.70;99.90;;;;;;4916034;29;20507;-86
2021/09/04 08:20:52;;;;;;;25.10;14.90;;;14.90;99.90;;;;;;4912680;29;20432;-86
2021/09/04 08:32:51;;;;;;;25.10;15.57;;;;;;;;;;4947718;29;20447;-86
2021/09/04 08:39:45;;;;;;;22.50;15.87;;;15.10;99.90;;;;;;4936429;29;20442;-86
2021/09/04 08:42:35;;;;;;;27.27;17.57;;;15.40;99.90;;;;;;4880147;29;20428;-85
2021/09/04 08:45:42;;;;;;;24.50;16.20;;;15.10;99.90;;;;;;4920135;29;20487;-86
2021/09/04 08:55:49;;;;;;;28.30;16.80;;;15.20;99.90;;;;;;4903005;29;20490;-84
2021/09/04 09:06:04;;;;;;;26.67;16.97;;;15.60;99.90;;;;;;4859668;29;20470;-86
2021/09/04 09:18:24;;;;;;;29.63;16.10;;;15.20;99.90;;;;;;4871785;29;20472;-86
2021/09/04 09:24:29;;;;;;;27.67;17.20;;;14.50;99.90;;;;;;4950301;29;20484;-85
2021/09/04 09:27:19;;;;;;;25.13;16.27;;;15.40;99.90;;;;;;4950785;29;20534;-85
2021/09/04 09:30:22;;;;;;;27.00;15.47;;;15.60;99.90;;;;;;4946404;29;20483;-85
2021/09/04 09:33:16;;;;;;;23.80;15.93;;;15.40;99.90;;;;;;4948564;29;20444;-85
2021/09/04 09:39:17;;;;;;;26.17;16.77;;;15.50;99.90;;;;;;4950114;29;20455;-85
2021/09/04 09:42:11;;;;;;;24.97;16.17;;;15.80;99.90;;;;;;4952576;29;20460;-85
2021/09/04 09:48:37;;;;;;;25.40;14.90;;;15.60;99.90;;;;;;4944277;29;20448;-85
2021/09/04 09:54:36;;;;;;;25.37;15.27;;;15.90;99.90;;;;;;4944162;29;20469;-86
2021/09/04 09:57:55;;;;;;;29.87;15.87;;;15.70;99.90;;;;;;4947662;29;20471;-86
2021/09/04 10:04:34;;;;;;;28.10;14.70;;;15.70;99.90;;;;;;4863074;29;21316;-85
2021/09/04 10:07:29;;;;;;;22.73;13.97;;;15.80;99.90;;;;;;4958969;29;20444;-85
2021/09/04 10:10:19;;;;;;;25.63;17.30;;;15.90;99.90;;;;;;4958299;28;20448;-86
2021/09/04 10:16:10;;;;;;;25.23;16.13;;;15.90;99.90;;;;;;4948054;29;20486;-85
2021/09/04 10:32:00;;;;;;;22.63;14.57;;;16.00;99.90;;;;;;4958218;28;20455;-85
2021/09/04 10:37:52;;;;;;;24.50;15.87;;;16.00;99.90;;;;;;4955427;28;20460;-85
2021/09/04 10:56:48;;;;;;;27.70;17.13;;;15.70;99.90;;;;;;4993889;23;20552;-85
2021/09/04 11:00:25;;;;;;;;;;;;;;;;;;;;;
2021/09/04 11:03:28;;;;;;;23.17;13.50;;;16.40;99.90;;;;;;4924111;29;20496;-85
2021/09/04 11:06:30;;;;;;;24.33;15.67;;;16.10;99.90;;;;;;4929425;29;20604;-86
2021/09/04 11:08:56;;;;;;;26.23;15.40;;;16.20;99.90;;;;;;4982985;23;20490;-83
2021/09/04 11:11:28;;;;;;;24.47;15.57;;;16.20;99.90;;;;;;4966014;28;20447;-84
2021/09/04 11:13:57;;;;;;;23.40;15.33;;;16.20;99.90;;;;;;4966150;28;20447;-83
2021/09/04 11:16:50;;;;;;;26.30;16.30;;;16.20;99.90;;;;;;4967543;28;20470;-84
2021/09/04 11:19:21;;;;;;;22.80;14.30;;;16.20;99.90;;;;;;4966523;28;20510;-83
2021/09/04 11:22:03;;;;;;;29.43;16.50;;;16.30;99.90;;;;;;4964761;28;20504;-84
2021/09/04 11:24:33;;;;;;;25.47;16.00;;;16.30;99.90;;;;;;4965245;28;20478;-84
2021/09/04 11:27:12;;;;;;;27.87;16.33;;;16.40;99.90;;;;;;4965223;28;20551;-84
2021/09/04 11:29:41;;;;;;;28.17;15.20;;;16.40;99.90;;;;;;4966748;28;20431;-84
2021/09/04 11:32:11;;;;;;;30.40;16.13;;;17.40;99.90;;;;;;4966219;28;20457;-83
2021/09/04 11:34:48;;;;;;;28.97;18.47;;;16.50;99.90;;;;;;4967088;28;20480;-84
2021/09/04 11:37:20;;;;;;;22.20;14.23;;;16.60;99.90;;;;;;4964759;28;20439;-83
2021/09/04 11:39:47;;;;;;;25.17;16.80;;;16.50;99.90;;;;;;4964981;28;20492;-83
2021/09/04 11:42:14;;;;;;;29.40;16.10;;;16.40;99.90;;;;;;4965269;28;20531;-82
2021/09/04 11:44:47;;;;;;;25.30;15.70;;;16.40;99.90;;;;;;4965183;29;20486;-83
2021/09/04 11:47:15;;;;;;;26.57;15.17;;;16.50;99.90;;;;;;4964440;28;20431;-84
2021/09/04 11:49:46;;;;;;;24.23;13.63;;;16.50;99.90;;;;;;4965306;28;20457;-84
2021/09/04 11:52:29;;;;;;;21.80;13.60;;;16.50;99.90;;;;;;4967089;28;20823;-83
2021/09/04 11:55:10;;;;;;;22.20;15.23;;;16.60;99.90;;;;;;4963254;28;20435;-82
2021/09/04 11:57:38;;;;;;;20.40;14.40;;;16.70;99.90;;;;;;4963320;28;20506;-84
2021/09/04 12:00:16;;;;;;;21.90;14.00;;;16.90;99.90;;;;;;4967281;28;20446;-83
2021/09/04 12:02:56;;;;;;;24.67;14.17;;;17.00;99.90;;;;;;4971417;28;20435;-83
2021/09/04 12:05:24;;;;;;;27.63;15.40;;;17.10;99.90;;;;;;4963378;28;20490;-83
2021/09/04 12:07:53;;;;;;;22.63;14.53;;;17.10;99.90;;;;;;4963035;28;21051;-84
2021/09/04 12:10:23;;;;;;;20.30;14.83;;;17.20;99.90;;;;;;4963349;28;20443;-85
2021/09/04 12:12:55;;;;;;;21.70;14.30;;;17.30;99.90;;;;;;4964275;28;20518;-84
2021/09/04 12:15:22;;;;;;;18.00;13.33;;;17.50;99.90;;;;;;4963818;28;20429;-84
2021/09/04 12:17:50;;;;;;;23.67;13.57;;;17.50;99.90;;;;;;4963712;28;20466;-84
2021/09/04 12:20:26;;;;;;;19.87;11.97;;;17.50;99.90;;;;;;4963229;28;20481;-84
2021/09/04 12:22:59;;;;;;;22.40;14.40;;;17.70;99.90;;;;;;4963295;28;20490;-84
2021/09/04 12:25:27;;;;;;;16.67;12.70;;;17.40;99.90;;;;;;4962858;28;20475;-84
2021/09/04 12:28:05;;;;;;;23.63;13.93;;;17.40;99.90;;;;;;4969591;28;20467;-82
2021/09/04 12:30:33;;;;;;;25.93;13.80;;;17.50;99.90;;;;;;4973964;28;20458;-83
2021/09/04 12:33:08;;;;;;;25.37;14.70;;;17.40;99.90;;;;;;4973554;28;20505;-83
2021/09/04 12:35:50;;;;;;;20.57;12.47;;;17.40;99.90;;;;;;4972365;28;20450;-83
2021/09/04 12:38:18;;;;;;;23.03;12.90;;;17.30;99.90;;;;;;4973264;28;20494;-83
2021/09/04 12:41:15;;;;;;;17.83;13.37;;;17.20;99.90;;;;;;4971199;29;20447;-82
2021/09/04 12:43:54;;;;;;;24.90;14.30;;;17.20;99.90;;;;;;4974154;28;20474;-85
2021/09/04 12:46:32;;;;;;;20.80;13.13;;;17.30;99.90;;;;;;4973113;28;20450;-83
2021/09/04 12:49:16;;;;;;;19.37;13.50;;;17.30;99.90;;;;;;4980944;28;20467;-81
2021/09/04 12:51:45;;;;;;;21.13;14.00;;;17.70;99.90;;;;;;4980345;28;20455;-83
2021/09/04 12:54:12;;;;;;;24.27;14.77;;;17.20;99.90;;;;;;4967853;28;20446;-84
2021/09/04 12:56:40;;;;;;;20.23;14.27;;;17.20;99.90;;;;;;4962882;28;20800;-85
2021/09/04 12:59:09;;;;;;;20.17;12.50;;;17.20;99.90;;;;;;4962489;28;20475;-84
2021/09/04 13:01:37;;;;;;;19.60;13.07;;;17.00;99.90;;;;;;4962721;28;20451;-83
2021/09/04 13:04:05;;;;;;;20.73;14.40;;;17.40;99.90;;;;;;4962193;28;20808;-83
2021/09/04 13:06:32;;;;;;;18.33;12.67;;;17.40;99.90;;;;;;4964548;28;20863;-84
2021/09/04 13:09:01;;;;;;;20.50;14.33;;;17.30;99.90;;;;;;4967505;28;20482;-84
2021/09/04 13:11:28;;;;;;;19.70;12.33;;;17.30;99.90;;;;;;4968058;28;20451;-84
2021/09/04 13:13:55;;;;;;;25.70;15.20;;;17.40;99.90;;;;;;4972172;28;20447;-83
2021/09/04 13:16:22;;;;;;;20.70;13.90;;;17.50;99.90;;;;;;4968822;28;20462;-85
2021/09/04 13:18:50;;;;;;;19.33;14.37;;;17.60;99.90;;;;;;4973798;28;20466;-82
2021/09/04 13:21:17;;;;;;;21.97;14.33;;;17.50;99.90;;;;;;4974782;28;20474;-82
2021/09/04 13:23:44;;;;;;;19.87;14.70;;;17.60;99.90;;;;;;4972526;28;20486;-82
2021/09/04 13:26:12;;;;;;;21.17;13.60;;;17.40;99.90;;;;;;4971458;28;20473;-82
2021/09/04 13:28:38;;;;;;;20.50;14.40;;;17.60;99.90;;;;;;4973185;28;20494;-82
2021/09/04 13:31:05;;;;;;;16.20;12.87;;;17.60;99.90;;;;;;4973957;28;20451;-84
2021/09/04 13:33:32;;;;;;;18.20;13.60;;;17.40;99.90;;;;;;4972834;28;20531;-83
2021/09/04 13:36:00;;;;;;;22.43;14.60;;;17.50;99.90;;;;;;4968617;28;20560;-83
2021/09/04 13:38:27;;;;;;;19.10;13.77;;;17.50;99.90;;;;;;4968538;28;20482;-84
2021/09/04 13:40:53;;;;;;;21.03;13.80;;;17.60;99.90;;;;;;4964854;28;20462;-84
2021/09/04 13:43:21;;;;;;;21.57;14.90;;;17.80;99.90;;;;;;4962069;28;20454;-83
2021/09/04 13:45:48;;;;;;;17.53;13.27;;;17.90;99.90;;;;;;4962412;28;20491;-82
2021/09/04 13:48:14;;;;;;;18.00;13.30;;;17.90;99.90;;;;;;4962207;28;20844;-83
2021/09/04 13:50:42;;;;;;;16.80;12.27;;;17.80;99.90;;;;;;4962516;28;20486;-85
2021/09/04 13:53:08;;;;;;;18.07;13.40;;;17.80;99.90;;;;;;4961174;28;20505;-83
2021/09/04 13:55:35;;;;;;;18.37;12.77;;;17.80;99.90;;;;;;4963129;28;20558;-83
2021/09/04 13:58:02;;;;;;;18.73;13.13;;;17.80;99.90;;;;;;4961837;28;20483;-83
2021/09/04 14:00:29;;;;;;;19.80;13.17;;;17.70;99.90;;;;;;4964548;28;20450;-83
2021/09/04 14:02:56;;;;;;;20.00;14.00;;;17.90;99.90;;;;;;4961464;28;20498;-84
2021/09/04 14:05:23;;;;;;;22.43;13.97;;;17.70;99.90;;;;;;4961637;28;20486;-84
2021/09/04 14:07:49;;;;;;;17.30;11.93;;;18.10;99.90;;;;;;4962009;28;20494;-83
2021/09/04 14:10:16;;;;;;;21.10;12.23;;;18.00;99.90;;;;;;4975320;28;20467;-82
2021/09/04 14:12:43;;;;;;;20.13;13.33;;;18.00;99.90;;;;;;4975068;28;20447;-83
2021/09/04 14:15:10;;;;;;;20.90;14.60;;;17.90;99.90;;;;;;4973315;28;20442;-83
2021/09/04 14:17:38;;;;;;;20.63;12.53;;;18.10;99.90;;;;;;4974670;28;20981;-83
2021/09/04 14:20:06;;;;;;;19.57;12.80;;;18.00;99.90;;;;;;4970204;28;20513;-85
2021/09/04 14:22:32;;;;;;;18.77;12.83;;;18.00;99.90;;;;;;4965537;28;20454;-84
2021/09/04 14:24:59;;;;;;;19.30;13.13;;;17.90;99.90;;;;;;4961437;28;20514;-84
2021/09/04 14:27:28;;;;;;;21.40;12.93;;;18.10;99.90;;;;;;4963222;28;20475;-84
2021/09/04 14:29:54;;;;;;;15.57;10.73;;;18.10;99.90;;;;;;4962195;28;20950;-84
2021/09/04 14:32:21;;;;;;;17.33;11.80;;;18.10;99.90;;;;;;4961237;28;20493;-84
2021/09/04 14:34:49;;;;;;;17.83;12.70;;;18.10;99.90;;;;;;4964372;28;20451;-83
2021/09/04 14:37:16;;;;;;;23.03;13.13;;;18.00;99.90;;;;;;4963256;28;20500;-85
2021/09/04 14:39:43;;;;;;;16.80;12.00;;;18.00;99.90;;;;;;4962165;28;20902;-84
2021/09/04 14:42:09;;;;;;;20.20;14.07;;;17.90;99.90;;;;;;4966762;28;20469;-85
2021/09/04 14:44:36;;;;;;;25.63;12.10;;;17.90;99.90;;;;;;4974907;28;20487;-84
2021/09/04 14:47:05;;;;;;;20.13;14.50;;;18.10;99.90;;;;;;4975436;28;20446;-85
2021/09/04 14:49:32;;;;;;;21.50;12.37;;;18.10;99.90;;;;;;4965939;28;20450;-84
2021/09/04 14:51:59;;;;;;;20.37;12.90;;;17.80;99.90;;;;;;4964282;28;20828;-83
2021/09/04 14:54:28;;;;;;;17.30;12.27;;;17.80;99.90;;;;;;4964323;28;20446;-81
2021/09/04 14:56:55;;;;;;;18.57;11.77;;;17.80;99.90;;;;;;4970830;28;20518;-84
2021/09/04 14:59:22;;;;;;;19.43;11.27;;;17.80;99.90;;;;;;4971198;28;20502;-82
2021/09/04 15:01:48;;;;;;;19.57;11.77;;;17.90;99.90;;;;;;4973286;28;20441;-83
2021/09/04 15:04:15;;;;;;;18.67;11.83;;;18.00;99.90;;;;;;4972513;28;20545;-83
2021/09/04 15:06:42;;;;;;;21.20;13.70;;;17.90;99.90;;;;;;4971392;28;20450;-82
2021/09/04 15:09:09;;;;;;;18.03;11.90;;;17.90;99.90;;;;;;4974326;28;20470;-82
2021/09/04 15:11:36;;;;;;;18.67;12.50;;;17.90;99.90;;;;;;4975805;29;20451;-84
2021/09/04 15:14:03;;;;;;;16.63;12.30;;;17.90;99.90;;;;;;4974557;28;20447;-83
2021/09/04 15:16:29;;;;;;;13.70;10.97;;;18.10;99.90;;;;;;4974082;28;20450;-82
2021/09/04 15:18:56;;;;;;;17.10;11.57;;;18.20;99.90;;;;;;4974281;28;20494;-83
2021/09/04 15:21:22;;;;;;;21.00;13.30;;;18.20;99.90;;;;;;4974428;28;20450;-83
2021/09/04 15:23:49;;;;;;;18.20;12.47;;;18.20;99.90;;;;;;4978384;28;20454;-82
2021/09/04 15:26:17;;;;;;;17.37;9.93;;;18.30;99.90;;;;;;4976682;28;20493;-83
2021/09/04 15:28:44;;;;;;;10.70;9.60;;;18.40;99.90;;;;;;4974609;28;20818;-82
2021/09/04 15:31:10;;;;;;;16.80;10.30;;;18.80;99.90;;;;;;4980711;28;20441;-83
2021/09/04 15:33:37;;;;;;;13.53;9.40;;;18.40;99.90;;;;;;4978654;28;20454;-82
2021/09/04 15:36:06;;;;;;;11.70;7.83;;;18.30;99.90;;;;;;4976699;28;20427;-81
2021/09/04 15:38:32;;;;;;;15.10;8.93;;;18.30;99.90;;;;;;4976927;28;20488;-83
2021/09/04 15:40:59;;;;;;;10.50;7.57;;;18.40;99.90;;;;;;4976517;28;20469;-81
2021/09/04 15:43:27;;;;;;;10.43;7.90;;;18.30;99.90;;;;;;4975440;29;20454;-84
2021/09/04 15:45:55;;;;;;;13.13;7.73;;;18.40;99.90;;;;;;4972587;28;20888;-84
2021/09/04 15:48:22;;;;;;;9.30;6.53;;;17.80;99.90;;;;;;4973388;28;20529;-83
2021/09/04 15:50:51;;;;;;;11.53;7.70;;;18.20;99.90;;;;;;4969498;28;20446;-84